sensor_id;sensor_type;location;lat;lon;timestamp;P1;durP1;ratioP1;P2;durP2;ratioP2
2225;SDS011;1119;48.288;8.726;2024-01-25T00:01:08;20.80;;;2.90;;
2225;SDS011;1119;48.288;8.726;2024-01-25T00:03:36;20.70;;;3.03;;
2225;SDS011;1119;48.288;8.726;2024-01-25T00:06:03;20.87;;;3.30;;
2225;SDS011;1119;48.288;8.726;2024-01-25T00:08:32;20.87;;;3.13;;
2225;SDS011;1119;48.288;8.726;2024-01-25T00:11:00;20.87;;;3.33;;
2225;SDS011;1119;48.288;8.726;2024-01-25T00:13:28;20.90;;;3.30;;
2225;SDS011;1119;48.288;8.726;2024-01-25T00:15:56;20.80;;;3.07;;
2225;SDS011;1119;48.288;8.726;2024-01-25T00:18:24;20.67;;;3.20;;
2225;SDS011;1119;48.288;8.726;2024-01-25T00:20:51;20.80;;;3.40;;
2225;SDS011;1119;48.288;8.726;2024-01-25T00:23:18;20.70;;;3.20;;
2225;SDS011;1119;48.288;8.726;2024-01-25T00:25:45;20.70;;;3.20;;
2225;SDS011;1119;48.288;8.726;2024-01-25T00:28:13;20.83;;;3.30;;
2225;SDS011;1119;48.288;8.726;2024-01-25T00:30:40;20.70;;;3.27;;
2225;SDS011;1119;48.288;8.726;2024-01-25T00:33:09;20.80;;;3.07;;
2225;SDS011;1119;48.288;8.726;2024-01-25T00:35:36;20.80;;;3.37;;
2225;SDS011;1119;48.288;8.726;2024-01-25T00:38:04;20.80;;;3.37;;
2225;SDS011;1119;48.288;8.726;2024-01-25T00:40:33;20.70;;;3.30;;
2225;SDS011;1119;48.288;8.726;2024-01-25T00:43:01;20.70;;;3.20;;
2225;SDS011;1119;48.288;8.726;2024-01-25T00:45:33;20.53;;;3.00;;
2225;SDS011;1119;48.288;8.726;2024-01-25T00:48:01;20.70;;;3.20;;
2225;SDS011;1119;48.288;8.726;2024-01-25T00:50:31;20.67;;;3.10;;
2225;SDS011;1119;48.288;8.726;2024-01-25T00:52:59;20.67;;;3.07;;
2225;SDS011;1119;48.288;8.726;2024-01-25T00:55:27;20.77;;;3.10;;
2225;SDS011;1119;48.288;8.726;2024-01-25T00:57:55;20.73;;;3.27;;
2225;SDS011;1119;48.288;8.726;2024-01-25T01:00:25;20.80;;;3.30;;
2225;SDS011;1119;48.288;8.726;2024-01-25T01:02:53;20.60;;;3.30;;
2225;SDS011;1119;48.288;8.726;2024-01-25T01:05:24;20.50;;;2.80;;
2225;SDS011;1119;48.288;8.726;2024-01-25T01:07:54;20.70;;;3.10;;
2225;SDS011;1119;48.288;8.726;2024-01-25T01:10:22;20.80;;;3.37;;
2225;SDS011;1119;48.288;8.726;2024-01-25T01:12:49;20.80;;;3.23;;
2225;SDS011;1119;48.288;8.726;2024-01-25T01:15:17;20.70;;;3.20;;
2225;SDS011;1119;48.288;8.726;2024-01-25T01:17:44;20.77;;;3.40;;
2225;SDS011;1119;48.288;8.726;2024-01-25T01:20:12;20.50;;;3.20;;
2225;SDS011;1119;48.288;8.726;2024-01-25T01:22:39;20.77;;;3.20;;
2225;SDS011;1119;48.288;8.726;2024-01-25T01:25:08;20.73;;;3.07;;
2225;SDS011;1119;48.288;8.726;2024-01-25T01:27:36;20.70;;;3.10;;
2225;SDS011;1119;48.288;8.726;2024-01-25T01:30:03;20.80;;;3.20;;
2225;SDS011;1119;48.288;8.726;2024-01-25T01:32:33;20.60;;;2.80;;
2225;SDS011;1119;48.288;8.726;2024-01-25T01:35:00;20.57;;;2.90;;
2225;SDS011;1119;48.288;8.726;2024-01-25T01:37:28;20.60;;;3.00;;
2225;SDS011;1119;48.288;8.726;2024-01-25T01:39:55;20.70;;;2.93;;
2225;SDS011;1119;48.288;8.726;2024-01-25T01:42:26;20.60;;;2.90;;
2225;SDS011;1119;48.288;8.726;2024-01-25T01:44:53;20.63;;;3.17;;
2225;SDS011;1119;48.288;8.726;2024-01-25T01:47:21;20.60;;;2.70;;
2225;SDS011;1119;48.288;8.726;2024-01-25T01:49:48;20.60;;;2.80;;
2225;SDS011;1119;48.288;8.726;2024-01-25T01:52:16;20.70;;;2.90;;
2225;SDS011;1119;48.288;8.726;2024-01-25T01:54:44;20.70;;;3.27;;
2225;SDS011;1119;48.288;8.726;2024-01-25T01:57:13;20.70;;;2.90;;
2225;SDS011;1119;48.288;8.726;2024-01-25T01:59:42;20.60;;;3.20;;
2225;SDS011;1119;48.288;8.726;2024-01-25T02:02:10;20.80;;;3.20;;
2225;SDS011;1119;48.288;8.726;2024-01-25T02:04:37;20.73;;;2.90;;
2225;SDS011;1119;48.288;8.726;2024-01-25T02:07:05;20.63;;;2.80;;
2225;SDS011;1119;48.288;8.726;2024-01-25T02:09:33;20.63;;;2.83;;
2225;SDS011;1119;48.288;8.726;2024-01-25T02:12:02;20.60;;;2.87;;
2225;SDS011;1119;48.288;8.726;2024-01-25T02:14:30;20.80;;;3.00;;
2225;SDS011;1119;48.288;8.726;2024-01-25T02:16:59;20.80;;;3.07;;
2225;SDS011;1119;48.288;8.726;2024-01-25T02:19:26;20.77;;;2.83;;
2225;SDS011;1119;48.288;8.726;2024-01-25T02:21:53;20.87;;;3.00;;
2225;SDS011;1119;48.288;8.726;2024-01-25T02:24:25;20.80;;;3.23;;
2225;SDS011;1119;48.288;8.726;2024-01-25T02:26:52;20.73;;;3.03;;
2225;SDS011;1119;48.288;8.726;2024-01-25T02:29:19;20.80;;;3.60;;
2225;SDS011;1119;48.288;8.726;2024-01-25T02:31:47;20.80;;;3.30;;
2225;SDS011;1119;48.288;8.726;2024-01-25T02:34:14;20.93;;;3.67;;
2225;SDS011;1119;48.288;8.726;2024-01-25T02:36:41;20.90;;;3.70;;
2225;SDS011;1119;48.288;8.726;2024-01-25T02:39:09;20.90;;;3.90;;
2225;SDS011;1119;48.288;8.726;2024-01-25T02:41:37;20.87;;;3.57;;
2225;SDS011;1119;48.288;8.726;2024-01-25T02:44:05;20.80;;;3.63;;
2225;SDS011;1119;48.288;8.726;2024-01-25T02:46:32;20.97;;;4.10;;
2225;SDS011;1119;48.288;8.726;2024-01-25T02:49:00;20.80;;;3.63;;
2225;SDS011;1119;48.288;8.726;2024-01-25T02:51:27;21.00;;;4.10;;
2225;SDS011;1119;48.288;8.726;2024-01-25T02:53:54;20.80;;;3.30;;
2225;SDS011;1119;48.288;8.726;2024-01-25T02:56:22;20.90;;;4.40;;
2225;SDS011;1119;48.288;8.726;2024-01-25T02:58:51;20.77;;;3.50;;
2225;SDS011;1119;48.288;8.726;2024-01-25T03:01:18;20.83;;;3.83;;
2225;SDS011;1119;48.288;8.726;2024-01-25T03:03:45;20.87;;;4.30;;
2225;SDS011;1119;48.288;8.726;2024-01-25T03:06:12;20.80;;;3.70;;
2225;SDS011;1119;48.288;8.726;2024-01-25T03:08:40;21.00;;;4.00;;
2225;SDS011;1119;48.288;8.726;2024-01-25T03:11:07;20.50;;;3.63;;
2225;SDS011;1119;48.288;8.726;2024-01-25T03:13:34;20.83;;;3.73;;
2225;SDS011;1119;48.288;8.726;2024-01-25T03:16:03;20.70;;;3.90;;
2225;SDS011;1119;48.288;8.726;2024-01-25T03:18:32;20.80;;;3.80;;
2225;SDS011;1119;48.288;8.726;2024-01-25T03:20:59;20.70;;;3.40;;
2225;SDS011;1119;48.288;8.726;2024-01-25T03:23:26;20.87;;;4.07;;
2225;SDS011;1119;48.288;8.726;2024-01-25T03:25:54;20.87;;;3.60;;
2225;SDS011;1119;48.288;8.726;2024-01-25T03:28:21;20.67;;;3.40;;
2225;SDS011;1119;48.288;8.726;2024-01-25T03:30:48;20.60;;;3.53;;
2225;SDS011;1119;48.288;8.726;2024-01-25T03:33:17;20.70;;;3.80;;
2225;SDS011;1119;48.288;8.726;2024-01-25T03:35:44;20.70;;;3.53;;
2225;SDS011;1119;48.288;8.726;2024-01-25T03:38:12;20.80;;;4.40;;
2225;SDS011;1119;48.288;8.726;2024-01-25T03:40:39;20.87;;;3.90;;
2225;SDS011;1119;48.288;8.726;2024-01-25T03:43:07;20.93;;;4.10;;
2225;SDS011;1119;48.288;8.726;2024-01-25T03:45:34;20.73;;;3.77;;
2225;SDS011;1119;48.288;8.726;2024-01-25T03:48:01;20.73;;;3.73;;
2225;SDS011;1119;48.288;8.726;2024-01-25T03:50:31;20.70;;;3.67;;
2225;SDS011;1119;48.288;8.726;2024-01-25T03:52:58;20.63;;;3.93;;
2225;SDS011;1119;48.288;8.726;2024-01-25T03:55:25;20.87;;;4.27;;
2225;SDS011;1119;48.288;8.726;2024-01-25T03:57:53;20.77;;;4.17;;
2225;SDS011;1119;48.288;8.726;2024-01-25T04:00:20;20.77;;;4.07;;
2225;SDS011;1119;48.288;8.726;2024-01-25T04:02:48;20.70;;;4.47;;
2225;SDS011;1119;48.288;8.726;2024-01-25T04:05:15;20.70;;;3.90;;
2225;SDS011;1119;48.288;8.726;2024-01-25T04:07:44;20.53;;;3.67;;
2225;SDS011;1119;48.288;8.726;2024-01-25T04:10:11;20.73;;;3.77;;
2225;SDS011;1119;48.288;8.726;2024-01-25T04:12:39;20.63;;;3.80;;
2225;SDS011;1119;48.288;8.726;2024-01-25T04:15:06;20.60;;;3.43;;
2225;SDS011;1119;48.288;8.726;2024-01-25T04:17:34;20.70;;;4.00;;
2225;SDS011;1119;48.288;8.726;2024-01-25T04:20:02;20.60;;;3.93;;
2225;SDS011;1119;48.288;8.726;2024-01-25T04:22:30;20.47;;;3.70;;
2225;SDS011;1119;48.288;8.726;2024-01-25T04:24:59;20.63;;;4.00;;
2225;SDS011;1119;48.288;8.726;2024-01-25T04:27:26;20.60;;;3.90;;
2225;SDS011;1119;48.288;8.726;2024-01-25T04:29:53;20.50;;;3.70;;
2225;SDS011;1119;48.288;8.726;2024-01-25T04:32:21;20.60;;;3.87;;
2225;SDS011;1119;48.288;8.726;2024-01-25T04:34:48;20.57;;;3.40;;
2225;SDS011;1119;48.288;8.726;2024-01-25T04:37:15;20.60;;;3.83;;
2225;SDS011;1119;48.288;8.726;2024-01-25T04:39:43;20.70;;;4.00;;
2225;SDS011;1119;48.288;8.726;2024-01-25T04:42:13;20.63;;;3.70;;
2225;SDS011;1119;48.288;8.726;2024-01-25T04:44:40;20.60;;;3.93;;
2225;SDS011;1119;48.288;8.726;2024-01-25T04:47:07;20.60;;;3.90;;
2225;SDS011;1119;48.288;8.726;2024-01-25T04:49:36;20.63;;;3.67;;
2225;SDS011;1119;48.288;8.726;2024-01-25T04:52:03;20.57;;;3.43;;
2225;SDS011;1119;48.288;8.726;2024-01-25T04:54:31;20.67;;;3.70;;
2225;SDS011;1119;48.288;8.726;2024-01-25T04:56:59;20.70;;;4.20;;
2225;SDS011;1119;48.288;8.726;2024-01-25T04:59:28;20.63;;;4.07;;
2225;SDS011;1119;48.288;8.726;2024-01-25T05:01:55;20.83;;;4.50;;
2225;SDS011;1119;48.288;8.726;2024-01-25T05:04:23;20.77;;;4.40;;
2225;SDS011;1119;48.288;8.726;2024-01-25T05:06:50;20.90;;;5.00;;
2225;SDS011;1119;48.288;8.726;2024-01-25T05:09:17;20.80;;;4.57;;
2225;SDS011;1119;48.288;8.726;2024-01-25T05:11:47;20.90;;;5.00;;
2225;SDS011;1119;48.288;8.726;2024-01-25T05:14:14;20.73;;;4.07;;
2225;SDS011;1119;48.288;8.726;2024-01-25T05:16:43;20.70;;;4.23;;
2225;SDS011;1119;48.288;8.726;2024-01-25T05:19:10;20.50;;;3.53;;
2225;SDS011;1119;48.288;8.726;2024-01-25T05:21:37;20.63;;;4.17;;
2225;SDS011;1119;48.288;8.726;2024-01-25T05:24:05;20.73;;;4.17;;
2225;SDS011;1119;48.288;8.726;2024-01-25T05:26:33;20.70;;;4.40;;
2225;SDS011;1119;48.288;8.726;2024-01-25T05:29:00;20.60;;;4.00;;
2225;SDS011;1119;48.288;8.726;2024-01-25T05:31:27;20.60;;;4.03;;
2225;SDS011;1119;48.288;8.726;2024-01-25T05:33:56;20.47;;;3.83;;
2225;SDS011;1119;48.288;8.726;2024-01-25T05:36:23;20.50;;;3.90;;
2225;SDS011;1119;48.288;8.726;2024-01-25T05:38:51;20.90;;;4.60;;
2225;SDS011;1119;48.288;8.726;2024-01-25T05:41:18;20.67;;;4.40;;
2225;SDS011;1119;48.288;8.726;2024-01-25T05:43:45;20.50;;;3.80;;
2225;SDS011;1119;48.288;8.726;2024-01-25T05:46:13;20.40;;;3.70;;
2225;SDS011;1119;48.288;8.726;2024-01-25T05:48:42;20.47;;;3.47;;
2225;SDS011;1119;48.288;8.726;2024-01-25T05:51:11;20.50;;;3.50;;
2225;SDS011;1119;48.288;8.726;2024-01-25T05:53:39;20.47;;;3.70;;
2225;SDS011;1119;48.288;8.726;2024-01-25T05:56:06;20.40;;;3.70;;
2225;SDS011;1119;48.288;8.726;2024-01-25T05:58:34;20.53;;;3.60;;
2225;SDS011;1119;48.288;8.726;2024-01-25T06:01:01;20.53;;;3.67;;
2225;SDS011;1119;48.288;8.726;2024-01-25T06:03:29;20.57;;;3.63;;
2225;SDS011;1119;48.288;8.726;2024-01-25T06:05:57;20.50;;;3.70;;
2225;SDS011;1119;48.288;8.726;2024-01-25T06:08:29;20.53;;;4.10;;
2225;SDS011;1119;48.288;8.726;2024-01-25T06:10:56;20.53;;;4.00;;
2225;SDS011;1119;48.288;8.726;2024-01-25T06:13:23;20.40;;;3.47;;
2225;SDS011;1119;48.288;8.726;2024-01-25T06:15:50;20.60;;;3.67;;
2225;SDS011;1119;48.288;8.726;2024-01-25T06:18:18;20.57;;;3.70;;
2225;SDS011;1119;48.288;8.726;2024-01-25T06:20:45;20.60;;;4.30;;
2225;SDS011;1119;48.288;8.726;2024-01-25T06:23:12;20.50;;;3.83;;
2225;SDS011;1119;48.288;8.726;2024-01-25T06:25:41;20.57;;;4.03;;
2225;SDS011;1119;48.288;8.726;2024-01-25T06:28:09;20.47;;;3.63;;
2225;SDS011;1119;48.288;8.726;2024-01-25T06:30:36;20.70;;;4.40;;
2225;SDS011;1119;48.288;8.726;2024-01-25T06:33:04;20.80;;;4.70;;
2225;SDS011;1119;48.288;8.726;2024-01-25T06:35:32;20.57;;;3.80;;
2225;SDS011;1119;48.288;8.726;2024-01-25T06:37:59;20.60;;;4.10;;
2225;SDS011;1119;48.288;8.726;2024-01-25T06:40:26;20.83;;;4.50;;
2225;SDS011;1119;48.288;8.726;2024-01-25T06:42:55;20.70;;;4.63;;
2225;SDS011;1119;48.288;8.726;2024-01-25T06:45:22;20.67;;;4.47;;
2225;SDS011;1119;48.288;8.726;2024-01-25T06:47:50;20.73;;;4.73;;
2225;SDS011;1119;48.288;8.726;2024-01-25T06:50:19;20.87;;;4.83;;
2225;SDS011;1119;48.288;8.726;2024-01-25T06:52:47;20.70;;;4.47;;
2225;SDS011;1119;48.288;8.726;2024-01-25T06:55:15;20.77;;;4.37;;
2225;SDS011;1119;48.288;8.726;2024-01-25T06:57:42;20.70;;;4.40;;
2225;SDS011;1119;48.288;8.726;2024-01-25T07:00:11;20.67;;;4.70;;
2225;SDS011;1119;48.288;8.726;2024-01-25T07:02:41;20.67;;;4.10;;
2225;SDS011;1119;48.288;8.726;2024-01-25T07:05:08;20.70;;;4.77;;
2225;SDS011;1119;48.288;8.726;2024-01-25T07:07:36;20.63;;;4.03;;
2225;SDS011;1119;48.288;8.726;2024-01-25T07:10:05;20.50;;;4.00;;
2225;SDS011;1119;48.288;8.726;2024-01-25T07:12:34;20.70;;;4.33;;
2225;SDS011;1119;48.288;8.726;2024-01-25T07:15:01;20.70;;;4.17;;
2225;SDS011;1119;48.288;8.726;2024-01-25T07:17:30;20.70;;;4.63;;
2225;SDS011;1119;48.288;8.726;2024-01-25T07:19:58;20.70;;;4.40;;
2225;SDS011;1119;48.288;8.726;2024-01-25T07:22:25;20.77;;;4.70;;
2225;SDS011;1119;48.288;8.726;2024-01-25T07:24:53;20.77;;;4.53;;
2225;SDS011;1119;48.288;8.726;2024-01-25T07:27:20;20.80;;;4.80;;
2225;SDS011;1119;48.288;8.726;2024-01-25T07:29:48;20.73;;;4.20;;
2225;SDS011;1119;48.288;8.726;2024-01-25T07:32:15;20.57;;;4.27;;
2225;SDS011;1119;48.288;8.726;2024-01-25T07:34:45;20.83;;;5.27;;
2225;SDS011;1119;48.288;8.726;2024-01-25T07:37:12;20.70;;;4.60;;
2225;SDS011;1119;48.288;8.726;2024-01-25T07:39:44;20.80;;;5.03;;
2225;SDS011;1119;48.288;8.726;2024-01-25T07:42:11;20.60;;;4.43;;
2225;SDS011;1119;48.288;8.726;2024-01-25T07:44:39;20.90;;;4.77;;
2225;SDS011;1119;48.288;8.726;2024-01-25T07:47:06;20.60;;;4.20;;
2225;SDS011;1119;48.288;8.726;2024-01-25T07:49:35;20.50;;;4.00;;
2225;SDS011;1119;48.288;8.726;2024-01-25T07:52:04;20.60;;;3.73;;
2225;SDS011;1119;48.288;8.726;2024-01-25T07:54:31;20.57;;;4.20;;
2225;SDS011;1119;48.288;8.726;2024-01-25T07:56:59;20.40;;;3.97;;
2225;SDS011;1119;48.288;8.726;2024-01-25T07:59:26;20.40;;;3.73;;
2225;SDS011;1119;48.288;8.726;2024-01-25T08:01:53;20.37;;;3.50;;
2225;SDS011;1119;48.288;8.726;2024-01-25T08:04:21;20.37;;;3.17;;
2225;SDS011;1119;48.288;8.726;2024-01-25T08:06:48;20.20;;;3.03;;
2225;SDS011;1119;48.288;8.726;2024-01-25T08:09:17;20.43;;;3.23;;
2225;SDS011;1119;48.288;8.726;2024-01-25T08:11:44;20.50;;;3.33;;
2225;SDS011;1119;48.288;8.726;2024-01-25T08:14:11;20.40;;;3.27;;
2225;SDS011;1119;48.288;8.726;2024-01-25T08:16:39;20.20;;;2.90;;
2225;SDS011;1119;48.288;8.726;2024-01-25T08:19:08;20.60;;;3.67;;
2225;SDS011;1119;48.288;8.726;2024-01-25T08:21:35;20.63;;;4.20;;
2225;SDS011;1119;48.288;8.726;2024-01-25T08:24:02;20.53;;;3.40;;
2225;SDS011;1119;48.288;8.726;2024-01-25T08:26:32;20.50;;;3.90;;
2225;SDS011;1119;48.288;8.726;2024-01-25T08:28:59;20.67;;;4.30;;
2225;SDS011;1119;48.288;8.726;2024-01-25T08:31:27;20.43;;;3.80;;
2225;SDS011;1119;48.288;8.726;2024-01-25T08:33:54;20.40;;;3.80;;
2225;SDS011;1119;48.288;8.726;2024-01-25T08:36:22;20.37;;;3.77;;
2225;SDS011;1119;48.288;8.726;2024-01-25T08:38:49;20.50;;;3.70;;
2225;SDS011;1119;48.288;8.726;2024-01-25T08:41:17;20.57;;;4.03;;
2225;SDS011;1119;48.288;8.726;2024-01-25T08:44:04;20.53;;;3.90;;
2225;SDS011;1119;48.288;8.726;2024-01-25T08:46:50;20.50;;;3.73;;
2225;SDS011;1119;48.288;8.726;2024-01-25T08:49:19;20.60;;;3.90;;
2225;SDS011;1119;48.288;8.726;2024-01-25T08:51:46;20.40;;;3.53;;
2225;SDS011;1119;48.288;8.726;2024-01-25T08:54:14;20.43;;;3.50;;
2225;SDS011;1119;48.288;8.726;2024-01-25T08:56:41;20.40;;;3.57;;
2225;SDS011;1119;48.288;8.726;2024-01-25T08:59:10;20.37;;;2.87;;
2225;SDS011;1119;48.288;8.726;2024-01-25T09:01:37;20.27;;;2.73;;
2225;SDS011;1119;48.288;8.726;2024-01-25T09:04:05;20.37;;;2.80;;
2225;SDS011;1119;48.288;8.726;2024-01-25T09:06:33;20.27;;;3.00;;
2225;SDS011;1119;48.288;8.726;2024-01-25T09:09:00;20.40;;;3.00;;
2225;SDS011;1119;48.288;8.726;2024-01-25T09:11:29;20.57;;;3.30;;
2225;SDS011;1119;48.288;8.726;2024-01-25T09:13:56;20.30;;;3.10;;
2225;SDS011;1119;48.288;8.726;2024-01-25T09:16:25;20.40;;;3.13;;
2225;SDS011;1119;48.288;8.726;2024-01-25T09:18:53;20.37;;;3.00;;
2225;SDS011;1119;48.288;8.726;2024-01-25T09:21:20;20.40;;;3.20;;
2225;SDS011;1119;48.288;8.726;2024-01-25T09:23:47;20.33;;;2.67;;
2225;SDS011;1119;48.288;8.726;2024-01-25T09:26:15;20.43;;;3.10;;
2225;SDS011;1119;48.288;8.726;2024-01-25T09:28:42;20.40;;;2.90;;
2225;SDS011;1119;48.288;8.726;2024-01-25T09:31:10;20.40;;;3.47;;
2225;SDS011;1119;48.288;8.726;2024-01-25T09:33:38;20.37;;;2.83;;
2225;SDS011;1119;48.288;8.726;2024-01-25T09:36:06;20.40;;;2.73;;
2225;SDS011;1119;48.288;8.726;2024-01-25T09:38:34;20.30;;;3.00;;
2225;SDS011;1119;48.288;8.726;2024-01-25T09:41:01;20.37;;;3.30;;
2225;SDS011;1119;48.288;8.726;2024-01-25T09:43:29;20.40;;;3.30;;
2225;SDS011;1119;48.288;8.726;2024-01-25T09:45:58;20.40;;;2.97;;
2225;SDS011;1119;48.288;8.726;2024-01-25T09:48:27;20.37;;;3.10;;
2225;SDS011;1119;48.288;8.726;2024-01-25T09:50:57;20.33;;;2.93;;
2225;SDS011;1119;48.288;8.726;2024-01-25T09:53:26;20.30;;;2.80;;
2225;SDS011;1119;48.288;8.726;2024-01-25T09:55:56;20.50;;;3.30;;
2225;SDS011;1119;48.288;8.726;2024-01-25T09:58:30;20.43;;;3.20;;
2225;SDS011;1119;48.288;8.726;2024-01-25T10:01:05;20.37;;;2.97;;
2225;SDS011;1119;48.288;8.726;2024-01-25T10:03:36;20.10;;;2.30;;
2225;SDS011;1119;48.288;8.726;2024-01-25T10:06:06;20.40;;;2.80;;
2225;SDS011;1119;48.288;8.726;2024-01-25T10:08:34;20.20;;;2.80;;
2225;SDS011;1119;48.288;8.726;2024-01-25T10:11:02;20.30;;;2.87;;
2225;SDS011;1119;48.288;8.726;2024-01-25T10:13:30;20.43;;;3.33;;
2225;SDS011;1119;48.288;8.726;2024-01-25T10:15:57;20.27;;;3.00;;
2225;SDS011;1119;48.288;8.726;2024-01-25T10:18:25;20.40;;;3.00;;
2225;SDS011;1119;48.288;8.726;2024-01-25T10:20:53;20.33;;;3.07;;
2225;SDS011;1119;48.288;8.726;2024-01-25T10:23:22;20.30;;;2.60;;
2225;SDS011;1119;48.288;8.726;2024-01-25T10:25:50;20.40;;;3.17;;
2225;SDS011;1119;48.288;8.726;2024-01-25T10:28:18;20.40;;;3.17;;
2225;SDS011;1119;48.288;8.726;2024-01-25T10:30:46;20.40;;;3.03;;
2225;SDS011;1119;48.288;8.726;2024-01-25T10:33:14;20.30;;;2.57;;
2225;SDS011;1119;48.288;8.726;2024-01-25T10:35:43;20.40;;;3.07;;
2225;SDS011;1119;48.288;8.726;2024-01-25T10:38:15;20.37;;;2.70;;
2225;SDS011;1119;48.288;8.726;2024-01-25T10:40:45;20.47;;;3.00;;
2225;SDS011;1119;48.288;8.726;2024-01-25T10:43:13;20.37;;;2.60;;
2225;SDS011;1119;48.288;8.726;2024-01-25T10:45:41;20.43;;;2.70;;
2225;SDS011;1119;48.288;8.726;2024-01-25T10:48:09;20.40;;;2.60;;
2225;SDS011;1119;48.288;8.726;2024-01-25T10:50:36;20.27;;;2.37;;
2225;SDS011;1119;48.288;8.726;2024-01-25T10:53:05;20.33;;;2.50;;
2225;SDS011;1119;48.288;8.726;2024-01-25T10:55:34;20.37;;;2.60;;
2225;SDS011;1119;48.288;8.726;2024-01-25T10:58:03;20.40;;;2.60;;
2225;SDS011;1119;48.288;8.726;2024-01-25T11:00:34;20.43;;;2.60;;
2225;SDS011;1119;48.288;8.726;2024-01-25T11:03:02;20.40;;;2.70;;
2225;SDS011;1119;48.288;8.726;2024-01-25T11:05:33;20.40;;;2.70;;
2225;SDS011;1119;48.288;8.726;2024-01-25T11:08:01;20.37;;;2.60;;
2225;SDS011;1119;48.288;8.726;2024-01-25T11:10:28;20.47;;;2.73;;
2225;SDS011;1119;48.288;8.726;2024-01-25T11:13:04;20.40;;;2.70;;
2225;SDS011;1119;48.288;8.726;2024-01-25T11:15:32;20.40;;;2.60;;
2225;SDS011;1119;48.288;8.726;2024-01-25T11:18:01;20.57;;;2.90;;
2225;SDS011;1119;48.288;8.726;2024-01-25T11:20:33;20.47;;;2.50;;
2225;SDS011;1119;48.288;8.726;2024-01-25T11:23:02;20.60;;;2.77;;
2225;SDS011;1119;48.288;8.726;2024-01-25T11:25:32;20.50;;;2.60;;
2225;SDS011;1119;48.288;8.726;2024-01-25T11:28:02;20.40;;;2.30;;
2225;SDS011;1119;48.288;8.726;2024-01-25T11:30:33;20.47;;;2.70;;
2225;SDS011;1119;48.288;8.726;2024-01-25T11:33:03;20.47;;;2.77;;
2225;SDS011;1119;48.288;8.726;2024-01-25T11:35:31;20.57;;;3.00;;
2225;SDS011;1119;48.288;8.726;2024-01-25T11:37:59;20.50;;;2.90;;
2225;SDS011;1119;48.288;8.726;2024-01-25T11:40:27;20.60;;;3.00;;
2225;SDS011;1119;48.288;8.726;2024-01-25T11:42:56;20.57;;;2.83;;
2225;SDS011;1119;48.288;8.726;2024-01-25T11:45:25;20.37;;;2.40;;
2225;SDS011;1119;48.288;8.726;2024-01-25T11:47:53;20.60;;;2.97;;
2225;SDS011;1119;48.288;8.726;2024-01-25T11:50:21;20.50;;;2.90;;
2225;SDS011;1119;48.288;8.726;2024-01-25T11:52:49;20.47;;;2.47;;
2225;SDS011;1119;48.288;8.726;2024-01-25T11:55:17;20.47;;;2.60;;
2225;SDS011;1119;48.288;8.726;2024-01-25T11:57:44;20.40;;;2.30;;
2225;SDS011;1119;48.288;8.726;2024-01-25T12:00:13;20.40;;;2.37;;
2225;SDS011;1119;48.288;8.726;2024-01-25T12:02:44;20.57;;;2.70;;
2225;SDS011;1119;48.288;8.726;2024-01-25T12:05:12;20.50;;;2.47;;
2225;SDS011;1119;48.288;8.726;2024-01-25T12:07:40;20.50;;;2.50;;
2225;SDS011;1119;48.288;8.726;2024-01-25T12:10:08;20.63;;;2.90;;
2225;SDS011;1119;48.288;8.726;2024-01-25T12:12:42;20.60;;;2.80;;
2225;SDS011;1119;48.288;8.726;2024-01-25T12:15:10;20.57;;;2.80;;
2225;SDS011;1119;48.288;8.726;2024-01-25T12:17:38;20.57;;;2.70;;
2225;SDS011;1119;48.288;8.726;2024-01-25T12:20:08;20.60;;;2.70;;
2225;SDS011;1119;48.288;8.726;2024-01-25T12:22:38;20.67;;;3.20;;
2225;SDS011;1119;48.288;8.726;2024-01-25T12:25:06;20.67;;;3.10;;
2225;SDS011;1119;48.288;8.726;2024-01-25T12:27:35;20.60;;;3.17;;
2225;SDS011;1119;48.288;8.726;2024-01-25T12:30:05;20.63;;;2.90;;
2225;SDS011;1119;48.288;8.726;2024-01-25T12:32:34;20.60;;;2.73;;
2225;SDS011;1119;48.288;8.726;2024-01-25T12:35:01;20.60;;;3.10;;
2225;SDS011;1119;48.288;8.726;2024-01-25T12:37:31;20.63;;;3.00;;
2225;SDS011;1119;48.288;8.726;2024-01-25T12:39:58;20.60;;;2.73;;
2225;SDS011;1119;48.288;8.726;2024-01-25T12:42:26;20.50;;;2.80;;
2225;SDS011;1119;48.288;8.726;2024-01-25T12:44:54;20.60;;;2.70;;
2225;SDS011;1119;48.288;8.726;2024-01-25T12:47:21;20.40;;;2.73;;
2225;SDS011;1119;48.288;8.726;2024-01-25T12:49:49;20.60;;;2.70;;
2225;SDS011;1119;48.288;8.726;2024-01-25T12:52:16;20.67;;;2.93;;
2225;SDS011;1119;48.288;8.726;2024-01-25T12:54:45;20.70;;;2.90;;
2225;SDS011;1119;48.288;8.726;2024-01-25T12:57:13;20.73;;;2.77;;
2225;SDS011;1119;48.288;8.726;2024-01-25T12:59:41;20.70;;;2.67;;
2225;SDS011;1119;48.288;8.726;2024-01-25T13:02:09;20.60;;;2.70;;
2225;SDS011;1119;48.288;8.726;2024-01-25T13:04:39;20.70;;;2.70;;
2225;SDS011;1119;48.288;8.726;2024-01-25T13:07:06;20.70;;;2.77;;
2225;SDS011;1119;48.288;8.726;2024-01-25T13:09:34;20.70;;;2.87;;
2225;SDS011;1119;48.288;8.726;2024-01-25T13:12:04;20.60;;;2.30;;
2225;SDS011;1119;48.288;8.726;2024-01-25T13:14:32;20.53;;;2.67;;
2225;SDS011;1119;48.288;8.726;2024-01-25T13:17:00;20.70;;;2.80;;
2225;SDS011;1119;48.288;8.726;2024-01-25T13:19:27;20.60;;;2.60;;
2225;SDS011;1119;48.288;8.726;2024-01-25T13:21:55;20.50;;;2.43;;
2225;SDS011;1119;48.288;8.726;2024-01-25T13:24:22;20.60;;;2.60;;
2225;SDS011;1119;48.288;8.726;2024-01-25T13:26:50;20.53;;;2.50;;
2225;SDS011;1119;48.288;8.726;2024-01-25T13:29:19;20.50;;;2.60;;
2225;SDS011;1119;48.288;8.726;2024-01-25T13:31:47;20.67;;;2.93;;
2225;SDS011;1119;48.288;8.726;2024-01-25T13:34:14;20.63;;;2.50;;
2225;SDS011;1119;48.288;8.726;2024-01-25T13:36:42;20.53;;;2.70;;
2225;SDS011;1119;48.288;8.726;2024-01-25T13:39:09;20.63;;;2.83;;
2225;SDS011;1119;48.288;8.726;2024-01-25T13:41:37;20.70;;;2.80;;
2225;SDS011;1119;48.288;8.726;2024-01-25T13:44:04;20.57;;;2.70;;
2225;SDS011;1119;48.288;8.726;2024-01-25T13:46:34;20.50;;;2.60;;
2225;SDS011;1119;48.288;8.726;2024-01-25T13:49:01;20.70;;;2.90;;
2225;SDS011;1119;48.288;8.726;2024-01-25T13:51:29;20.50;;;2.70;;
2225;SDS011;1119;48.288;8.726;2024-01-25T13:53:56;20.60;;;2.90;;
2225;SDS011;1119;48.288;8.726;2024-01-25T13:56:24;20.60;;;2.93;;
2225;SDS011;1119;48.288;8.726;2024-01-25T13:58:52;20.47;;;2.87;;
2225;SDS011;1119;48.288;8.726;2024-01-25T14:01:19;20.57;;;2.70;;
2225;SDS011;1119;48.288;8.726;2024-01-25T14:03:48;20.60;;;2.60;;
2225;SDS011;1119;48.288;8.726;2024-01-25T14:06:17;20.47;;;2.87;;
2225;SDS011;1119;48.288;8.726;2024-01-25T14:08:44;20.60;;;2.87;;
2225;SDS011;1119;48.288;8.726;2024-01-25T14:11:12;20.40;;;2.57;;
2225;SDS011;1119;48.288;8.726;2024-01-25T14:13:40;20.63;;;2.90;;
2225;SDS011;1119;48.288;8.726;2024-01-25T14:16:08;20.60;;;2.80;;
2225;SDS011;1119;48.288;8.726;2024-01-25T14:18:42;20.67;;;2.80;;
2225;SDS011;1119;48.288;8.726;2024-01-25T14:21:11;20.60;;;2.57;;
2225;SDS011;1119;48.288;8.726;2024-01-25T14:23:38;20.57;;;2.70;;
2225;SDS011;1119;48.288;8.726;2024-01-25T14:26:06;20.50;;;2.87;;
2225;SDS011;1119;48.288;8.726;2024-01-25T14:28:34;20.50;;;2.80;;
2225;SDS011;1119;48.288;8.726;2024-01-25T14:31:01;20.50;;;2.87;;
2225;SDS011;1119;48.288;8.726;2024-01-25T14:33:29;20.63;;;2.90;;
2225;SDS011;1119;48.288;8.726;2024-01-25T14:35:57;20.63;;;3.00;;
2225;SDS011;1119;48.288;8.726;2024-01-25T14:38:25;20.60;;;2.80;;
2225;SDS011;1119;48.288;8.726;2024-01-25T14:40:53;20.67;;;3.20;;
2225;SDS011;1119;48.288;8.726;2024-01-25T14:43:21;20.50;;;2.83;;
2225;SDS011;1119;48.288;8.726;2024-01-25T14:45:48;20.50;;;2.77;;
2225;SDS011;1119;48.288;8.726;2024-01-25T14:48:16;20.43;;;2.77;;
2225;SDS011;1119;48.288;8.726;2024-01-25T14:50:44;20.57;;;2.90;;
2225;SDS011;1119;48.288;8.726;2024-01-25T14:53:11;20.63;;;2.80;;
2225;SDS011;1119;48.288;8.726;2024-01-25T14:55:40;20.50;;;2.73;;
2225;SDS011;1119;48.288;8.726;2024-01-25T14:58:08;20.57;;;3.03;;
2225;SDS011;1119;48.288;8.726;2024-01-25T15:00:35;20.60;;;2.77;;
2225;SDS011;1119;48.288;8.726;2024-01-25T15:03:03;20.60;;;3.10;;
2225;SDS011;1119;48.288;8.726;2024-01-25T15:05:32;20.47;;;3.00;;